sensor_id;sensor_type;location;lat;lon;timestamp;P1;durP1;ratioP1;P2;durP2;ratioP2
15555;SDS011;7879;48.660;9.116;2023-12-28T00:00:43;0.40;;;0.40;;
15555;SDS011;7879;48.660;9.116;2023-12-28T00:03:16;0.40;;;0.40;;
15555;SDS011;7879;48.660;9.116;2023-12-28T00:06:00;0.40;;;0.40;;
15555;SDS011;7879;48.660;9.116;2023-12-28T00:14:54;0.30;;;0.30;;
15555;SDS011;7879;48.660;9.116;2023-12-28T00:17:22;0.30;;;0.30;;
15555;SDS011;7879;48.660;9.116;2023-12-28T00:19:52;0.30;;;0.30;;
15555;SDS011;7879;48.660;9.116;2023-12-28T00:22:21;0.38;;;0.38;;
15555;SDS011;7879;48.660;9.116;2023-12-28T00:24:51;0.30;;;0.30;;
15555;SDS011;7879;48.660;9.116;2023-12-28T00:27:21;0.30;;;0.30;;
15555;SDS011;7879;48.660;9.116;2023-12-28T00:29:53;0.40;;;0.40;;
15555;SDS011;7879;48.660;9.116;2023-12-28T00:32:23;0.40;;;0.40;;
15555;SDS011;7879;48.660;9.116;2023-12-28T00:34:50;0.40;;;0.40;;
15555;SDS011;7879;48.660;9.116;2023-12-28T00:37:21;0.45;;;0.45;;
15555;SDS011;7879;48.660;9.116;2023-12-28T00:39:48;0.40;;;0.40;;
15555;SDS011;7879;48.660;9.116;2023-12-28T00:42:19;0.40;;;0.40;;
15555;SDS011;7879;48.660;9.116;2023-12-28T00:44:52;0.40;;;0.40;;
15555;SDS011;7879;48.660;9.116;2023-12-28T00:47:25;0.40;;;0.40;;
15555;SDS011;7879;48.660;9.116;2023-12-28T00:49:52;0.40;;;0.40;;
15555;SDS011;7879;48.660;9.116;2023-12-28T00:52:20;0.30;;;0.30;;
15555;SDS011;7879;48.660;9.116;2023-12-28T00:55:04;0.30;;;0.30;;
15555;SDS011;7879;48.660;9.116;2023-12-28T00:57:34;0.40;;;0.40;;
15555;SDS011;7879;48.660;9.116;2023-12-28T01:00:02;0.40;;;0.40;;
15555;SDS011;7879;48.660;9.116;2023-12-28T01:02:33;0.40;;;0.40;;
15555;SDS011;7879;48.660;9.116;2023-12-28T01:05:00;0.30;;;0.30;;
15555;SDS011;7879;48.660;9.116;2023-12-28T01:07:37;0.33;;;0.33;;
15555;SDS011;7879;48.660;9.116;2023-12-28T01:10:04;0.30;;;0.30;;
15555;SDS011;7879;48.660;9.116;2023-12-28T01:12:34;0.30;;;0.30;;
15555;SDS011;7879;48.660;9.116;2023-12-28T01:15:02;0.30;;;0.30;;
15555;SDS011;7879;48.660;9.116;2023-12-28T01:17:39;0.30;;;0.30;;
15555;SDS011;7879;48.660;9.116;2023-12-28T01:20:18;0.30;;;0.30;;
15555;SDS011;7879;48.660;9.116;2023-12-28T01:22:46;0.30;;;0.30;;
15555;SDS011;7879;48.660;9.116;2023-12-28T01:25:16;0.30;;;0.30;;
15555;SDS011;7879;48.660;9.116;2023-12-28T01:27:44;0.30;;;0.30;;
15555;SDS011;7879;48.660;9.116;2023-12-28T01:30:11;0.30;;;0.30;;
15555;SDS011;7879;48.660;9.116;2023-12-28T01:32:41;0.30;;;0.30;;
15555;SDS011;7879;48.660;9.116;2023-12-28T01:35:09;0.30;;;0.30;;
15555;SDS011;7879;48.660;9.116;2023-12-28T01:37:36;0.32;;;0.32;;
15555;SDS011;7879;48.660;9.116;2023-12-28T01:40:13;0.40;;;0.40;;
15555;SDS011;7879;48.660;9.116;2023-12-28T01:42:50;0.40;;;0.40;;
15555;SDS011;7879;48.660;9.116;2023-12-28T01:45:20;0.30;;;0.30;;
15555;SDS011;7879;48.660;9.116;2023-12-28T01:47:47;0.40;;;0.40;;
15555;SDS011;7879;48.660;9.116;2023-12-28T01:50:23;0.40;;;0.40;;
15555;SDS011;7879;48.660;9.116;2023-12-28T01:53:05;0.40;;;0.40;;
15555;SDS011;7879;48.660;9.116;2023-12-28T01:55:36;0.40;;;0.40;;
15555;SDS011;7879;48.660;9.116;2023-12-28T01:58:06;0.40;;;0.40;;
15555;SDS011;7879;48.660;9.116;2023-12-28T02:00:43;0.40;;;0.40;;
15555;SDS011;7879;48.660;9.116;2023-12-28T02:03:12;0.30;;;0.30;;
15555;SDS011;7879;48.660;9.116;2023-12-28T02:05:42;0.40;;;0.40;;
15555;SDS011;7879;48.660;9.116;2023-12-28T02:08:16;0.40;;;0.40;;
15555;SDS011;7879;48.660;9.116;2023-12-28T02:10:45;0.40;;;0.40;;
15555;SDS011;7879;48.660;9.116;2023-12-28T02:13:21;0.40;;;0.40;;
15555;SDS011;7879;48.660;9.116;2023-12-28T02:15:51;0.40;;;0.40;;
15555;SDS011;7879;48.660;9.116;2023-12-28T02:21:10;0.40;;;0.40;;
15555;SDS011;7879;48.660;9.116;2023-12-28T02:23:48;0.40;;;0.40;;
15555;SDS011;7879;48.660;9.116;2023-12-28T02:26:17;0.40;;;0.40;;
15555;SDS011;7879;48.660;9.116;2023-12-28T02:28:50;0.40;;;0.40;;
15555;SDS011;7879;48.660;9.116;2023-12-28T02:31:40;0.30;;;0.30;;
15555;SDS011;7879;48.660;9.116;2023-12-28T02:34:16;0.50;;;0.50;;
15555;SDS011;7879;48.660;9.116;2023-12-28T02:36:56;0.50;;;0.50;;
15555;SDS011;7879;48.660;9.116;2023-12-28T02:39:35;0.45;;;0.45;;
15555;SDS011;7879;48.660;9.116;2023-12-28T02:42:13;0.50;;;0.50;;
15555;SDS011;7879;48.660;9.116;2023-12-28T02:44:44;0.40;;;0.40;;
15555;SDS011;7879;48.660;9.116;2023-12-28T02:47:23;0.40;;;0.40;;
15555;SDS011;7879;48.660;9.116;2023-12-28T02:49:52;0.40;;;0.40;;
15555;SDS011;7879;48.660;9.116;2023-12-28T02:52:45;0.40;;;0.40;;
15555;SDS011;7879;48.660;9.116;2023-12-28T02:55:21;0.30;;;0.30;;
15555;SDS011;7879;48.660;9.116;2023-12-28T02:58:00;0.27;;;0.27;;
15555;SDS011;7879;48.660;9.116;2023-12-28T03:00:52;0.30;;;0.30;;
15555;SDS011;7879;48.660;9.116;2023-12-28T03:03:20;0.40;;;0.40;;
15555;SDS011;7879;48.660;9.116;2023-12-28T03:05:57;0.30;;;0.30;;
15555;SDS011;7879;48.660;9.116;2023-12-28T03:08:33;0.30;;;0.30;;
15555;SDS011;7879;48.660;9.116;2023-12-28T03:11:01;0.30;;;0.30;;
15555;SDS011;7879;48.660;9.116;2023-12-28T03:13:44;0.30;;;0.30;;
15555;SDS011;7879;48.660;9.116;2023-12-28T03:16:15;0.40;;;0.40;;
15555;SDS011;7879;48.660;9.116;2023-12-28T03:18:52;0.30;;;0.30;;
15555;SDS011;7879;48.660;9.116;2023-12-28T03:21:43;0.30;;;0.30;;
15555;SDS011;7879;48.660;9.116;2023-12-28T03:24:37;0.30;;;0.30;;
15555;SDS011;7879;48.660;9.116;2023-12-28T03:27:15;0.30;;;0.30;;
15555;SDS011;7879;48.660;9.116;2023-12-28T03:29:46;0.30;;;0.30;;
15555;SDS011;7879;48.660;9.116;2023-12-28T03:32:20;0.20;;;0.20;;
15555;SDS011;7879;48.660;9.116;2023-12-28T03:34:50;0.30;;;0.30;;
15555;SDS011;7879;48.660;9.116;2023-12-28T03:37:21;0.30;;;0.30;;
15555;SDS011;7879;48.660;9.116;2023-12-28T03:39:54;0.40;;;0.40;;
15555;SDS011;7879;48.660;9.116;2023-12-28T03:42:21;0.40;;;0.40;;
15555;SDS011;7879;48.660;9.116;2023-12-28T03:44:50;0.30;;;0.30;;
15555;SDS011;7879;48.660;9.116;2023-12-28T03:47:21;0.30;;;0.30;;
15555;SDS011;7879;48.660;9.116;2023-12-28T03:49:50;0.30;;;0.30;;
15555;SDS011;7879;48.660;9.116;2023-12-28T03:52:26;0.30;;;0.30;;
15555;SDS011;7879;48.660;9.116;2023-12-28T03:54:57;0.30;;;0.30;;
15555;SDS011;7879;48.660;9.116;2023-12-28T03:57:25;0.30;;;0.30;;
15555;SDS011;7879;48.660;9.116;2023-12-28T03:59:55;0.30;;;0.30;;
15555;SDS011;7879;48.660;9.116;2023-12-28T04:02:32;0.40;;;0.40;;
15555;SDS011;7879;48.660;9.116;2023-12-28T04:05:05;0.40;;;0.40;;
15555;SDS011;7879;48.660;9.116;2023-12-28T04:07:38;0.40;;;0.40;;
15555;SDS011;7879;48.660;9.116;2023-12-28T04:10:12;0.40;;;0.40;;
15555;SDS011;7879;48.660;9.116;2023-12-28T04:16:54;0.40;;;0.40;;
15555;SDS011;7879;48.660;9.116;2023-12-28T04:20:02;0.30;;;0.30;;
15555;SDS011;7879;48.660;9.116;2023-12-28T04:23:11;0.40;;;0.40;;
15555;SDS011;7879;48.660;9.116;2023-12-28T04:26:54;0.30;;;0.30;;
15555;SDS011;7879;48.660;9.116;2023-12-28T04:29:34;0.30;;;0.30;;
15555;SDS011;7879;48.660;9.116;2023-12-28T04:32:38;0.30;;;0.30;;
15555;SDS011;7879;48.660;9.116;2023-12-28T04:35:08;0.30;;;0.30;;
15555;SDS011;7879;48.660;9.116;2023-12-28T04:37:43;0.30;;;0.30;;
15555;SDS011;7879;48.660;9.116;2023-12-28T04:40:24;0.30;;;0.30;;
15555;SDS011;7879;48.660;9.116;2023-12-28T04:43:06;0.30;;;0.30;;
15555;SDS011;7879;48.660;9.116;2023-12-28T04:45:39;0.20;;;0.20;;
15555;SDS011;7879;48.660;9.116;2023-12-28T04:48:09;0.30;;;0.30;;
15555;SDS011;7879;48.660;9.116;2023-12-28T04:50:37;0.30;;;0.30;;
15555;SDS011;7879;48.660;9.116;2023-12-28T04:53:33;0.20;;;0.20;;
15555;SDS011;7879;48.660;9.116;2023-12-28T04:56:08;0.30;;;0.30;;
15555;SDS011;7879;48.660;9.116;2023-12-28T04:58:47;0.20;;;0.20;;
15555;SDS011;7879;48.660;9.116;2023-12-28T05:01:22;0.30;;;0.30;;
15555;SDS011;7879;48.660;9.116;2023-12-28T05:03:54;0.20;;;0.20;;
15555;SDS011;7879;48.660;9.116;2023-12-28T05:06:22;0.30;;;0.30;;
15555;SDS011;7879;48.660;9.116;2023-12-28T05:08:49;0.30;;;0.30;;
15555;SDS011;7879;48.660;9.116;2023-12-28T05:11:21;0.20;;;0.20;;
15555;SDS011;7879;48.660;9.116;2023-12-28T05:13:50;0.30;;;0.30;;
15555;SDS011;7879;48.660;9.116;2023-12-28T05:16:17;0.20;;;0.20;;
15555;SDS011;7879;48.660;9.116;2023-12-28T05:18:49;0.20;;;0.20;;
15555;SDS011;7879;48.660;9.116;2023-12-28T05:21:17;0.30;;;0.30;;
15555;SDS011;7879;48.660;9.116;2023-12-28T05:23:49;0.20;;;0.20;;
15555;SDS011;7879;48.660;9.116;2023-12-28T05:26:18;0.30;;;0.30;;
15555;SDS011;7879;48.660;9.116;2023-12-28T05:28:56;0.30;;;0.30;;
15555;SDS011;7879;48.660;9.116;2023-12-28T05:31:40;0.30;;;0.30;;
15555;SDS011;7879;48.660;9.116;2023-12-28T05:34:11;0.22;;;0.22;;
15555;SDS011;7879;48.660;9.116;2023-12-28T05:39:49;0.20;;;0.20;;
15555;SDS011;7879;48.660;9.116;2023-12-28T05:42:24;0.30;;;0.30;;
15555;SDS011;7879;48.660;9.116;2023-12-28T05:44:55;0.20;;;0.20;;
15555;SDS011;7879;48.660;9.116;2023-12-28T05:47:37;0.30;;;0.30;;
15555;SDS011;7879;48.660;9.116;2023-12-28T05:50:14;0.20;;;0.20;;
15555;SDS011;7879;48.660;9.116;2023-12-28T05:52:55;0.30;;;0.30;;
15555;SDS011;7879;48.660;9.116;2023-12-28T05:55:25;0.20;;;0.20;;
15555;SDS011;7879;48.660;9.116;2023-12-28T05:57:58;0.30;;;0.30;;
15555;SDS011;7879;48.660;9.116;2023-12-28T06:00:25;0.20;;;0.20;;
15555;SDS011;7879;48.660;9.116;2023-12-28T06:02:52;0.20;;;0.20;;
15555;SDS011;7879;48.660;9.116;2023-12-28T06:05:19;0.30;;;0.30;;
15555;SDS011;7879;48.660;9.116;2023-12-28T06:07:45;0.20;;;0.20;;
15555;SDS011;7879;48.660;9.116;2023-12-28T06:10:12;0.30;;;0.30;;
15555;SDS011;7879;48.660;9.116;2023-12-28T06:12:39;0.20;;;0.20;;
15555;SDS011;7879;48.660;9.116;2023-12-28T06:15:06;0.22;;;0.22;;
15555;SDS011;7879;48.660;9.116;2023-12-28T06:17:34;0.20;;;0.20;;
15555;SDS011;7879;48.660;9.116;2023-12-28T06:20:01;0.20;;;0.20;;
15555;SDS011;7879;48.660;9.116;2023-12-28T06:22:28;0.30;;;0.30;;
15555;SDS011;7879;48.660;9.116;2023-12-28T06:24:56;0.20;;;0.20;;
15555;SDS011;7879;48.660;9.116;2023-12-28T06:27:23;0.30;;;0.30;;
15555;SDS011;7879;48.660;9.116;2023-12-28T06:29:49;0.20;;;0.20;;
15555;SDS011;7879;48.660;9.116;2023-12-28T06:32:16;0.20;;;0.20;;
15555;SDS011;7879;48.660;9.116;2023-12-28T06:34:43;0.25;;;0.25;;
15555;SDS011;7879;48.660;9.116;2023-12-28T06:37:10;0.20;;;0.20;;
15555;SDS011;7879;48.660;9.116;2023-12-28T06:39:37;0.30;;;0.30;;
15555;SDS011;7879;48.660;9.116;2023-12-28T06:42:03;0.20;;;0.20;;
15555;SDS011;7879;48.660;9.116;2023-12-28T06:44:31;0.20;;;0.20;;
15555;SDS011;7879;48.660;9.116;2023-12-28T06:46:58;0.30;;;0.30;;
15555;SDS011;7879;48.660;9.116;2023-12-28T06:49:25;0.20;;;0.20;;
15555;SDS011;7879;48.660;9.116;2023-12-28T06:51:52;0.30;;;0.30;;
15555;SDS011;7879;48.660;9.116;2023-12-28T06:54:19;0.20;;;0.20;;
15555;SDS011;7879;48.660;9.116;2023-12-28T06:56:45;0.30;;;0.30;;
15555;SDS011;7879;48.660;9.116;2023-12-28T06:59:12;0.20;;;0.20;;
15555;SDS011;7879;48.660;9.116;2023-12-28T07:01:41;0.20;;;0.20;;
15555;SDS011;7879;48.660;9.116;2023-12-28T07:04:08;0.30;;;0.30;;
15555;SDS011;7879;48.660;9.116;2023-12-28T07:06:35;0.20;;;0.20;;
15555;SDS011;7879;48.660;9.116;2023-12-28T07:09:02;0.30;;;0.30;;
15555;SDS011;7879;48.660;9.116;2023-12-28T07:11:30;0.20;;;0.20;;
15555;SDS011;7879;48.660;9.116;2023-12-28T07:13:57;0.30;;;0.30;;
15555;SDS011;7879;48.660;9.116;2023-12-28T07:16:24;0.20;;;0.20;;
15555;SDS011;7879;48.660;9.116;2023-12-28T07:18:52;0.30;;;0.30;;
15555;SDS011;7879;48.660;9.116;2023-12-28T07:21:19;0.20;;;0.20;;
15555;SDS011;7879;48.660;9.116;2023-12-28T07:23:46;0.30;;;0.30;;
15555;SDS011;7879;48.660;9.116;2023-12-28T07:26:15;0.20;;;0.20;;
15555;SDS011;7879;48.660;9.116;2023-12-28T07:28:42;0.30;;;0.30;;
15555;SDS011;7879;48.660;9.116;2023-12-28T07:31:11;0.20;;;0.20;;
15555;SDS011;7879;48.660;9.116;2023-12-28T07:33:48;0.30;;;0.30;;
15555;SDS011;7879;48.660;9.116;2023-12-28T07:36:15;0.20;;;0.20;;
15555;SDS011;7879;48.660;9.116;2023-12-28T07:38:42;0.30;;;0.30;;
15555;SDS011;7879;48.660;9.116;2023-12-28T07:41:08;0.20;;;0.20;;
15555;SDS011;7879;48.660;9.116;2023-12-28T07:43:36;0.30;;;0.30;;
15555;SDS011;7879;48.660;9.116;2023-12-28T07:46:03;0.20;;;0.20;;
15555;SDS011;7879;48.660;9.116;2023-12-28T07:48:30;0.30;;;0.30;;
15555;SDS011;7879;48.660;9.116;2023-12-28T07:50:57;0.20;;;0.20;;
15555;SDS011;7879;48.660;9.116;2023-12-28T07:53:24;0.30;;;0.30;;
15555;SDS011;7879;48.660;9.116;2023-12-28T07:55:51;0.20;;;0.20;;
15555;SDS011;7879;48.660;9.116;2023-12-28T07:58:18;0.30;;;0.30;;
15555;SDS011;7879;48.660;9.116;2023-12-28T08:00:44;0.20;;;0.20;;
15555;SDS011;7879;48.660;9.116;2023-12-28T08:03:11;0.30;;;0.30;;
15555;SDS011;7879;48.660;9.116;2023-12-28T08:05:41;0.20;;;0.20;;
15555;SDS011;7879;48.660;9.116;2023-12-28T08:08:08;0.30;;;0.30;;
15555;SDS011;7879;48.660;9.116;2023-12-28T08:10:35;0.20;;;0.20;;
15555;SDS011;7879;48.660;9.116;2023-12-28T08:13:02;0.20;;;0.20;;
15555;SDS011;7879;48.660;9.116;2023-12-28T08:15:29;0.20;;;0.20;;
15555;SDS011;7879;48.660;9.116;2023-12-28T08:17:56;0.28;;;0.28;;
15555;SDS011;7879;48.660;9.116;2023-12-28T08:20:23;0.20;;;0.20;;
15555;SDS011;7879;48.660;9.116;2023-12-28T08:22:50;0.30;;;0.30;;
15555;SDS011;7879;48.660;9.116;2023-12-28T08:25:35;0.30;;;0.30;;
15555;SDS011;7879;48.660;9.116;2023-12-28T08:28:02;0.20;;;0.20;;
15555;SDS011;7879;48.660;9.116;2023-12-28T08:30:29;0.30;;;0.30;;
15555;SDS011;7879;48.660;9.116;2023-12-28T08:32:56;0.20;;;0.20;;
15555;SDS011;7879;48.660;9.116;2023-12-28T08:35:23;0.30;;;0.30;;
15555;SDS011;7879;48.660;9.116;2023-12-28T08:37:50;0.20;;;0.20;;
15555;SDS011;7879;48.660;9.116;2023-12-28T08:40:16;0.30;;;0.30;;
15555;SDS011;7879;48.660;9.116;2023-12-28T08:42:43;0.20;;;0.20;;
15555;SDS011;7879;48.660;9.116;2023-12-28T08:45:11;0.20;;;0.20;;
15555;SDS011;7879;48.660;9.116;2023-12-28T08:47:38;0.20;;;0.20;;
15555;SDS011;7879;48.660;9.116;2023-12-28T08:50:05;0.22;;;0.22;;
15555;SDS011;7879;48.660;9.116;2023-12-28T08:52:32;0.20;;;0.20;;
15555;SDS011;7879;48.660;9.116;2023-12-28T08:54:59;0.20;;;0.20;;
15555;SDS011;7879;48.660;9.116;2023-12-28T08:57:27;0.20;;;0.20;;
15555;SDS011;7879;48.660;9.116;2023-12-28T09:00:07;0.20;;;0.20;;
15555;SDS011;7879;48.660;9.116;2023-12-28T09:02:34;0.23;;;0.23;;
15555;SDS011;7879;48.660;9.116;2023-12-28T09:05:01;0.20;;;0.20;;
15555;SDS011;7879;48.660;9.116;2023-12-28T09:07:28;0.20;;;0.20;;
15555;SDS011;7879;48.660;9.116;2023-12-28T09:09:55;0.20;;;0.20;;
15555;SDS011;7879;48.660;9.116;2023-12-28T09:12:22;0.30;;;0.30;;
15555;SDS011;7879;48.660;9.116;2023-12-28T09:14:48;0.20;;;0.20;;
15555;SDS011;7879;48.660;9.116;2023-12-28T09:17:21;0.30;;;0.30;;
15555;SDS011;7879;48.660;9.116;2023-12-28T09:19:49;0.20;;;0.20;;
15555;SDS011;7879;48.660;9.116;2023-12-28T09:22:16;0.30;;;0.30;;
15555;SDS011;7879;48.660;9.116;2023-12-28T09:24:43;0.20;;;0.20;;
15555;SDS011;7879;48.660;9.116;2023-12-28T09:27:10;0.28;;;0.28;;
15555;SDS011;7879;48.660;9.116;2023-12-28T09:29:36;0.20;;;0.20;;
15555;SDS011;7879;48.660;9.116;2023-12-28T09:32:03;0.20;;;0.20;;
15555;SDS011;7879;48.660;9.116;2023-12-28T09:34:30;0.20;;;0.20;;
15555;SDS011;7879;48.660;9.116;2023-12-28T09:36:57;0.20;;;0.20;;
15555;SDS011;7879;48.660;9.116;2023-12-28T09:39:24;0.20;;;0.20;;
15555;SDS011;7879;48.660;9.116;2023-12-28T09:42:04;0.20;;;0.20;;
15555;SDS011;7879;48.660;9.116;2023-12-28T09:44:36;0.20;;;0.20;;
15555;SDS011;7879;48.660;9.116;2023-12-28T09:47:06;0.22;;;0.22;;
15555;SDS011;7879;48.660;9.116;2023-12-28T09:49:33;0.20;;;0.20;;
15555;SDS011;7879;48.660;9.116;2023-12-28T09:52:04;0.20;;;0.20;;
15555;SDS011;7879;48.660;9.116;2023-12-28T09:54:31;0.20;;;0.20;;
15555;SDS011;7879;48.660;9.116;2023-12-28T09:56:58;0.20;;;0.20;;
15555;SDS011;7879;48.660;9.116;2023-12-28T09:59:25;0.20;;;0.20;;
15555;SDS011;7879;48.660;9.116;2023-12-28T10:01:54;0.20;;;0.20;;
15555;SDS011;7879;48.660;9.116;2023-12-28T10:04:22;0.10;;;0.10;;
15555;SDS011;7879;48.660;9.116;2023-12-28T10:06:49;0.20;;;0.20;;
15555;SDS011;7879;48.660;9.116;2023-12-28T10:09:17;0.20;;;0.20;;
15555;SDS011;7879;48.660;9.116;2023-12-28T10:11:44;0.10;;;0.10;;
15555;SDS011;7879;48.660;9.116;2023-12-28T10:14:11;0.20;;;0.20;;
15555;SDS011;7879;48.660;9.116;2023-12-28T10:16:41;0.20;;;0.20;;
15555;SDS011;7879;48.660;9.116;2023-12-28T10:19:08;0.20;;;0.20;;
15555;SDS011;7879;48.660;9.116;2023-12-28T10:21:35;0.10;;;0.10;;
15555;SDS011;7879;48.660;9.116;2023-12-28T10:24:05;0.20;;;0.20;;
15555;SDS011;7879;48.660;9.116;2023-12-28T10:26:32;0.20;;;0.20;;
15555;SDS011;7879;48.660;9.116;2023-12-28T10:28:59;0.10;;;0.10;;
15555;SDS011;7879;48.660;9.116;2023-12-28T10:31:29;0.20;;;0.20;;
15555;SDS011;7879;48.660;9.116;2023-12-28T10:34:00;0.10;;;0.10;;
15555;SDS011;7879;48.660;9.116;2023-12-28T10:36:29;0.20;;;0.20;;
15555;SDS011;7879;48.660;9.116;2023-12-28T10:38:58;0.20;;;0.20;;
15555;SDS011;7879;48.660;9.116;2023-12-28T10:41:27;0.10;;;0.10;;
15555;SDS011;7879;48.660;9.116;2023-12-28T10:44:03;0.20;;;0.20;;
15555;SDS011;7879;48.660;9.116;2023-12-28T10:46:37;0.20;;;0.20;;
15555;SDS011;7879;48.660;9.116;2023-12-28T10:49:11;0.20;;;0.20;;
15555;SDS011;7879;48.660;9.116;2023-12-28T10:51:40;0.20;;;0.20;;
15555;SDS011;7879;48.660;9.116;2023-12-28T11:02:47;0.20;;;0.20;;
15555;SDS011;7879;48.660;9.116;2023-12-28T11:05:21;0.20;;;0.20;;
15555;SDS011;7879;48.660;9.116;2023-12-28T11:07:49;0.13;;;0.13;;
15555;SDS011;7879;48.660;9.116;2023-12-28T11:10:22;0.20;;;0.20;;
15555;SDS011;7879;48.660;9.116;2023-12-28T11:12:53;0.20;;;0.20;;
15555;SDS011;7879;48.660;9.116;2023-12-28T11:15:23;0.20;;;0.20;;
15555;SDS011;7879;48.660;9.116;2023-12-28T11:17:52;0.10;;;0.10;;
15555;SDS011;7879;48.660;9.116;2023-12-28T11:20:19;0.10;;;0.10;;
15555;SDS011;7879;48.660;9.116;2023-12-28T11:22:47;0.20;;;0.20;;
15555;SDS011;7879;48.660;9.116;2023-12-28T11:25:17;0.20;;;0.20;;
15555;SDS011;7879;48.660;9.116;2023-12-28T11:27:45;0.13;;;0.13;;
15555;SDS011;7879;48.660;9.116;2023-12-28T11:30:13;0.10;;;0.10;;
15555;SDS011;7879;48.660;9.116;2023-12-28T11:32:40;0.20;;;0.20;;
15555;SDS011;7879;48.660;9.116;2023-12-28T11:35:11;0.20;;;0.20;;
15555;SDS011;7879;48.660;9.116;2023-12-28T11:37:42;0.20;;;0.20;;
15555;SDS011;7879;48.660;9.116;2023-12-28T11:40:16;0.10;;;0.10;;
15555;SDS011;7879;48.660;9.116;2023-12-28T11:42:49;0.10;;;0.10;;
15555;SDS011;7879;48.660;9.116;2023-12-28T11:45:18;0.20;;;0.20;;
15555;SDS011;7879;48.660;9.116;2023-12-28T11:47:46;0.20;;;0.20;;
15555;SDS011;7879;48.660;9.116;2023-12-28T11:50:13;0.20;;;0.20;;
15555;SDS011;7879;48.660;9.116;2023-12-28T11:52:40;0.10;;;0.10;;
15555;SDS011;7879;48.660;9.116;2023-12-28T11:55:10;0.13;;;0.13;;
15555;SDS011;7879;48.660;9.116;2023-12-28T11:57:46;0.20;;;0.20;;
15555;SDS011;7879;48.660;9.116;2023-12-28T12:00:13;0.20;;;0.20;;
15555;SDS011;7879;48.660;9.116;2023-12-28T12:02:43;0.10;;;0.10;;
15555;SDS011;7879;48.660;9.116;2023-12-28T12:05:11;0.20;;;0.20;;
15555;SDS011;7879;48.660;9.116;2023-12-28T12:07:39;0.20;;;0.20;;
15555;SDS011;7879;48.660;9.116;2023-12-28T12:10:06;0.20;;;0.20;;
15555;SDS011;7879;48.660;9.116;2023-12-28T12:12:33;0.10;;;0.10;;
15555;SDS011;7879;48.660;9.116;2023-12-28T12:15:00;0.10;;;0.10;;
15555;SDS011;7879;48.660;9.116;2023-12-28T12:17:27;0.20;;;0.20;;
15555;SDS011;7879;48.660;9.116;2023-12-28T12:19:55;0.20;;;0.20;;
15555;SDS011;7879;48.660;9.116;2023-12-28T12:22:25;0.15;;;0.15;;
15555;SDS011;7879;48.660;9.116;2023-12-28T12:24:55;0.20;;;0.20;;
15555;SDS011;7879;48.660;9.116;2023-12-28T12:27:24;0.20;;;0.20;;
15555;SDS011;7879;48.660;9.116;2023-12-28T12:29:51;0.20;;;0.20;;
15555;SDS011;7879;48.660;9.116;2023-12-28T12:32:18;0.20;;;0.20;;
15555;SDS011;7879;48.660;9.116;2023-12-28T12:34:45;0.10;;;0.10;;
15555;SDS011;7879;48.660;9.116;2023-12-28T12:37:13;0.20;;;0.20;;
15555;SDS011;7879;48.660;9.116;2023-12-28T12:39:40;0.25;;;0.25;;
15555;SDS011;7879;48.660;9.116;2023-12-28T12:42:06;0.10;;;0.10;;
15555;SDS011;7879;48.660;9.116;2023-12-28T12:44:33;0.15;;;0.15;;
15555;SDS011;7879;48.660;9.116;2023-12-28T12:47:00;0.20;;;0.20;;
15555;SDS011;7879;48.660;9.116;2023-12-28T12:49:28;0.20;;;0.20;;
15555;SDS011;7879;48.660;9.116;2023-12-28T12:51:55;0.10;;;0.10;;
15555;SDS011;7879;48.660;9.116;2023-12-28T12:54:22;0.20;;;0.20;;
15555;SDS011;7879;48.660;9.116;2023-12-28T12:56:49;0.20;;;0.20;;
15555;SDS011;7879;48.660;9.116;2023-12-28T12:59:17;0.10;;;0.10;;
15555;SDS011;7879;48.660;9.116;2023-12-28T13:01:44;0.10;;;0.10;;
15555;SDS011;7879;48.660;9.116;2023-12-28T13:04:18;0.20;;;0.20;;
15555;SDS011;7879;48.660;9.116;2023-12-28T13:06:46;0.20;;;0.20;;
15555;SDS011;7879;48.660;9.116;2023-12-28T13:09:13;0.10;;;0.10;;
15555;SDS011;7879;48.660;9.116;2023-12-28T13:11:40;0.20;;;0.20;;
15555;SDS011;7879;48.660;9.116;2023-12-28T13:14:07;0.22;;;0.22;;
15555;SDS011;7879;48.660;9.116;2023-12-28T13:16:33;0.10;;;0.10;;
15555;SDS011;7879;48.660;9.116;2023-12-28T13:19:00;0.20;;;0.20;;
15555;SDS011;7879;48.660;9.116;2023-12-28T13:21:27;0.20;;;0.20;;
15555;SDS011;7879;48.660;9.116;2023-12-28T13:23:54;0.10;;;0.10;;
15555;SDS011;7879;48.660;9.116;2023-12-28T13:26:23;0.20;;;0.20;;
15555;SDS011;7879;48.660;9.116;2023-12-28T13:28:50;0.20;;;0.20;;
15555;SDS011;7879;48.660;9.116;2023-12-28T13:31:16;0.20;;;0.20;;
15555;SDS011;7879;48.660;9.116;2023-12-28T13:33:45;0.20;;;0.20;;
15555;SDS011;7879;48.660;9.116;2023-12-28T13:36:12;0.20;;;0.20;;
15555;SDS011;7879;48.660;9.116;2023-12-28T13:38:39;0.30;;;0.30;;
15555;SDS011;7879;48.660;9.116;2023-12-28T13:41:06;0.20;;;0.20;;
15555;SDS011;7879;48.660;9.116;2023-12-28T13:43:33;0.20;;;0.20;;
15555;SDS011;7879;48.660;9.116;2023-12-28T13:46:00;0.20;;;0.20;;
15555;SDS011;7879;48.660;9.116;2023-12-28T13:48:27;0.20;;;0.20;;
15555;SDS011;7879;48.660;9.116;2023-12-28T13:50:54;0.20;;;0.20;;
15555;SDS011;7879;48.660;9.116;2023-12-28T13:53:21;0.20;;;0.20;;
15555;SDS011;7879;48.660;9.116;2023-12-28T13:55:48;0.30;;;0.30;;
15555;SDS011;7879;48.660;9.116;2023-12-28T13:58:15;0.20;;;0.20;;
15555;SDS011;7879;48.660;9.116;2023-12-28T14:00:42;0.20;;;0.20;;
15555;SDS011;7879;48.660;9.116;2023-12-28T14:03:09;0.20;;;0.20;;
15555;SDS011;7879;48.660;9.116;2023-12-28T14:05:36;0.20;;;0.20;;
15555;SDS011;7879;48.660;9.116;2023-12-28T14:08:03;0.20;;;0.20;;
15555;SDS011;7879;48.660;9.116;2023-12-28T14:10:30;0.20;;;0.20;;
15555;SDS011;7879;48.660;9.116;2023-12-28T14:12:57;0.20;;;0.20;;
15555;SDS011;7879;48.660;9.116;2023-12-28T14:15:24;0.20;;;0.20;;
15555;SDS011;7879;48.660;9.116;2023-12-28T14:17:51;0.30;;;0.30;;
15555;SDS011;7879;48.660;9.116;2023-12-28T14:20:18;0.20;;;0.20;;
15555;SDS011;7879;48.660;9.116;2023-12-28T14:22:45;0.30;;;0.30;;
15555;SDS011;7879;48.660;9.116;2023-12-28T14:25:12;0.20;;;0.20;;
15555;SDS011;7879;48.660;9.116;2023-12-28T14:27:39;0.30;;;0.30;;
15555;SDS011;7879;48.660;9.116;2023-12-28T14:30:06;0.20;;;0.20;;
15555;SDS011;7879;48.660;9.116;2023-12-28T14:32:36;0.20;;;0.20;;
15555;SDS011;7879;48.660;9.116;2023-12-28T14:35:03;0.20;;;0.20;;
15555;SDS011;7879;48.660;9.116;2023-12-28T14:37:31;0.20;;;0.20;;
15555;SDS011;7879;48.660;9.116;2023-12-28T14:39:58;0.30;;;0.30;;
15555;SDS011;7879;48.660;9.116;2023-12-28T14:42:25;0.20;;;0.20;;
15555;SDS011;7879;48.660;9.116;2023-12-28T14:44:52;0.30;;;0.30;;
15555;SDS011;7879;48.660;9.116;2023-12-28T14:47:18;0.20;;;0.20;;
15555;SDS011;7879;48.660;9.116;2023-12-28T14:49:45;0.20;;;0.20;;
15555;SDS011;7879;48.660;9.116;2023-12-28T14:52:12;0.20;;;0.20;;
15555;SDS011;7879;48.660;9.116;2023-12-28T14:54:39;0.30;;;0.30;;
15555;SDS011;7879;48.660;9.116;2023-12-28T14:57:06;0.20;;;0.20;;
15555;SDS011;7879;48.660;9.116;2023-12-28T14:59:33;0.30;;;0.30;;
15555;SDS011;7879;48.660;9.116;2023-12-28T15:01:59;0.20;;;0.20;;
15555;SDS011;7879;48.660;9.116;2023-12-28T15:04:26;0.30;;;0.30;;
15555;SDS011;7879;48.660;9.116;2023-12-28T15:06:53;0.20;;;0.20;;
15555;SDS011;7879;48.660;9.116;2023-12-28T15:09:20;0.30;;;0.30;;
15555;SDS011;7879;48.660;9.116;2023-12-28T15:11:47;0.20;;;0.20;;
15555;SDS011;7879;48.660;9.116;2023-12-28T15:14:15;0.30;;;0.30;;
15555;SDS011;7879;48.660;9.116;2023-12-28T15:16:43;0.20;;;0.20;;
15555;SDS011;7879;48.660;9.116;2023-12-28T15:19:11;0.30;;;0.30;;
15555;SDS011;7879;48.660;9.116;2023-12-28T15:21:38;0.20;;;0.20;;
15555;SDS011;7879;48.660;9.116;2023-12-28T15:24:05;0.20;;;0.20;;
15555;SDS011;7879;48.660;9.116;2023-12-28T15:26:33;0.20;;;0.20;;
15555;SDS011;7879;48.660;9.116;2023-12-28T15:29:00;0.20;;;0.20;;
15555;SDS011;7879;48.660;9.116;2023-12-28T15:31:27;0.20;;;0.20;;
15555;SDS011;7879;48.660;9.116;2023-12-28T15:33:54;0.20;;;0.20;;
15555;SDS011;7879;48.660;9.116;2023-12-28T15:36:21;0.22;;;0.22;;
15555;SDS011;7879;48.660;9.116;2023-12-28T15:38:48;0.20;;;0.20;;
15555;SDS011;7879;48.660;9.116;2023-12-28T15:41:15;0.30;;;0.30;;
15555;SDS011;7879;48.660;9.116;2023-12-28T15:43:41;0.20;;;0.20;;